sensor_id;sensor_type;location;lat;lon;timestamp;temperature;humidity
5200;DHT22;2619;47.868;11.892;2022-11-13T00:01:59;3.70;99.90
5200;DHT22;2619;47.868;11.892;2022-11-13T00:04:25;3.60;99.90
5200;DHT22;2619;47.868;11.892;2022-11-13T00:06:50;3.60;99.90
5200;DHT22;2619;47.868;11.892;2022-11-13T00:09:16;3.60;99.90
5200;DHT22;2619;47.868;11.892;2022-11-13T00:11:42;3.50;99.90
5200;DHT22;2619;47.868;11.892;2022-11-13T00:14:07;3.50;99.90
5200;DHT22;2619;47.868;11.892;2022-11-13T00:16:33;3.50;99.90
5200;DHT22;2619;47.868;11.892;2022-11-13T00:18:58;3.50;99.90
5200;DHT22;2619;47.868;11.892;2022-11-13T00:21:24;3.40;99.90
5200;DHT22;2619;47.868;11.892;2022-11-13T00:23:52;3.50;99.90
5200;DHT22;2619;47.868;11.892;2022-11-13T00:26:25;3.40;99.90
5200;DHT22;2619;47.868;11.892;2022-11-13T00:28:53;3.40;99.90
5200;DHT22;2619;47.868;11.892;2022-11-13T00:31:18;3.40;99.90
5200;DHT22;2619;47.868;11.892;2022-11-13T00:33:44;3.40;99.90
5200;DHT22;2619;47.868;11.892;2022-11-13T00:36:14;3.40;99.90
5200;DHT22;2619;47.868;11.892;2022-11-13T00:38:40;3.40;99.90
5200;DHT22;2619;47.868;11.892;2022-11-13T00:41:05;3.30;99.90
5200;DHT22;2619;47.868;11.892;2022-11-13T00:43:31;3.40;99.90
5200;DHT22;2619;47.868;11.892;2022-11-13T00:45:57;3.40;99.90
5200;DHT22;2619;47.868;11.892;2022-11-13T00:48:23;3.40;99.90
5200;DHT22;2619;47.868;11.892;2022-11-13T00:50:48;3.30;99.90
5200;DHT22;2619;47.868;11.892;2022-11-13T00:53:14;3.20;99.90
5200;DHT22;2619;47.868;11.892;2022-11-13T00:55:42;3.30;99.90
5200;DHT22;2619;47.868;11.892;2022-11-13T00:58:09;3.30;99.90
5200;DHT22;2619;47.868;11.892;2022-11-13T01:00:34;3.30;99.90
5200;DHT22;2619;47.868;11.892;2022-11-13T01:03:00;3.30;99.90
5200;DHT22;2619;47.868;11.892;2022-11-13T01:05:26;3.30;99.90
5200;DHT22;2619;47.868;11.892;2022-11-13T01:07:52;3.30;99.90
5200;DHT22;2619;47.868;11.892;2022-11-13T01:10:18;3.30;99.90
5200;DHT22;2619;47.868;11.892;2022-11-13T01:12:43;3.40;99.90
5200;DHT22;2619;47.868;11.892;2022-11-13T01:15:09;3.30;99.90
5200;DHT22;2619;47.868;11.892;2022-11-13T01:17:35;3.30;99.90
5200;DHT22;2619;47.868;11.892;2022-11-13T01:20:01;3.40;99.90
5200;DHT22;2619;47.868;11.892;2022-11-13T01:22:26;3.30;99.90
5200;DHT22;2619;47.868;11.892;2022-11-13T01:24:52;3.30;99.90
5200;DHT22;2619;47.868;11.892;2022-11-13T01:27:17;3.30;99.90
5200;DHT22;2619;47.868;11.892;2022-11-13T01:29:43;3.20;99.90
5200;DHT22;2619;47.868;11.892;2022-11-13T01:32:09;3.20;99.90
5200;DHT22;2619;47.868;11.892;2022-11-13T01:34:34;3.20;99.90
5200;DHT22;2619;47.868;11.892;2022-11-13T01:37:00;3.20;99.90
5200;DHT22;2619;47.868;11.892;2022-11-13T01:39:26;3.20;99.90
5200;DHT22;2619;47.868;11.892;2022-11-13T01:41:52;3.20;99.90
5200;DHT22;2619;47.868;11.892;2022-11-13T01:44:18;3.10;99.90
5200;DHT22;2619;47.868;11.892;2022-11-13T01:46:54;3.10;99.90
5200;DHT22;2619;47.868;11.892;2022-11-13T01:54:22;3.20;99.90
5200;DHT22;2619;47.868;11.892;2022-11-13T01:56:50;3.10;99.90
5200;DHT22;2619;47.868;11.892;2022-11-13T01:59:19;3.10;99.90
5200;DHT22;2619;47.868;11.892;2022-11-13T02:01:45;3.10;99.90
5200;DHT22;2619;47.868;11.892;2022-11-13T02:04:11;3.10;99.90
5200;DHT22;2619;47.868;11.892;2022-11-13T02:06:49;3.10;99.90
5200;DHT22;2619;47.868;11.892;2022-11-13T02:09:19;3.10;99.90
5200;DHT22;2619;47.868;11.892;2022-11-13T02:11:45;3.10;99.90
5200;DHT22;2619;47.868;11.892;2022-11-13T02:14:11;3.10;99.90
5200;DHT22;2619;47.868;11.892;2022-11-13T02:16:41;3.10;99.90
5200;DHT22;2619;47.868;11.892;2022-11-13T02:19:14;3.20;99.90
5200;DHT22;2619;47.868;11.892;2022-11-13T02:22:07;3.10;99.90
5200;DHT22;2619;47.868;11.892;2022-11-13T02:24:42;3.10;99.90
5200;DHT22;2619;47.868;11.892;2022-11-13T02:27:16;3.10;99.90
5200;DHT22;2619;47.868;11.892;2022-11-13T02:29:42;3.10;99.90
5200;DHT22;2619;47.868;11.892;2022-11-13T02:32:08;3.10;99.90
5200;DHT22;2619;47.868;11.892;2022-11-13T02:34:33;3.10;99.90
5200;DHT22;2619;47.868;11.892;2022-11-13T02:36:59;3.10;99.90
5200;DHT22;2619;47.868;11.892;2022-11-13T02:39:24;3.20;99.90
5200;DHT22;2619;47.868;11.892;2022-11-13T02:41:50;3.20;99.90
5200;DHT22;2619;47.868;11.892;2022-11-13T02:44:15;3.10;99.90
5200;DHT22;2619;47.868;11.892;2022-11-13T02:46:41;3.10;99.90
5200;DHT22;2619;47.868;11.892;2022-11-13T02:49:07;3.10;99.90
5200;DHT22;2619;47.868;11.892;2022-11-13T02:51:32;3.00;99.90
5200;DHT22;2619;47.868;11.892;2022-11-13T02:53:58;3.10;99.90
5200;DHT22;2619;47.868;11.892;2022-11-13T02:56:24;3.10;99.90
5200;DHT22;2619;47.868;11.892;2022-11-13T02:58:49;3.10;99.90
5200;DHT22;2619;47.868;11.892;2022-11-13T03:01:15;3.10;99.90
5200;DHT22;2619;47.868;11.892;2022-11-13T03:03:41;3.10;99.90
5200;DHT22;2619;47.868;11.892;2022-11-13T03:06:06;3.00;99.90
5200;DHT22;2619;47.868;11.892;2022-11-13T03:08:32;3.00;99.90
5200;DHT22;2619;47.868;11.892;2022-11-13T03:10:57;3.00;99.90
5200;DHT22;2619;47.868;11.892;2022-11-13T03:13:23;3.00;99.90
5200;DHT22;2619;47.868;11.892;2022-11-13T03:15:49;3.00;99.90
5200;DHT22;2619;47.868;11.892;2022-11-13T03:18:14;3.00;99.90
5200;DHT22;2619;47.868;11.892;2022-11-13T03:20:42;3.00;99.90
5200;DHT22;2619;47.868;11.892;2022-11-13T03:23:07;3.00;99.90
5200;DHT22;2619;47.868;11.892;2022-11-13T03:25:33;3.00;99.90
5200;DHT22;2619;47.868;11.892;2022-11-13T03:27:59;3.00;99.90
5200;DHT22;2619;47.868;11.892;2022-11-13T03:30:26;3.00;99.90
5200;DHT22;2619;47.868;11.892;2022-11-13T03:32:53;3.00;99.90
5200;DHT22;2619;47.868;11.892;2022-11-13T03:35:20;3.00;99.90
5200;DHT22;2619;47.868;11.892;2022-11-13T03:37:45;3.00;99.90
5200;DHT22;2619;47.868;11.892;2022-11-13T03:40:11;2.90;99.90
5200;DHT22;2619;47.868;11.892;2022-11-13T03:42:36;2.90;99.90
5200;DHT22;2619;47.868;11.892;2022-11-13T03:45:02;2.90;99.90
5200;DHT22;2619;47.868;11.892;2022-11-13T03:47:28;2.90;99.90
5200;DHT22;2619;47.868;11.892;2022-11-13T03:49:53;2.90;99.90
5200;DHT22;2619;47.868;11.892;2022-11-13T03:52:19;3.00;99.90
5200;DHT22;2619;47.868;11.892;2022-11-13T03:54:45;2.90;99.90
5200;DHT22;2619;47.868;11.892;2022-11-13T03:57:10;2.90;99.90
5200;DHT22;2619;47.868;11.892;2022-11-13T03:59:36;2.90;99.90
5200;DHT22;2619;47.868;11.892;2022-11-13T04:02:02;2.90;99.90
5200;DHT22;2619;47.868;11.892;2022-11-13T04:04:27;2.90;99.90
5200;DHT22;2619;47.868;11.892;2022-11-13T04:06:53;2.90;99.90
5200;DHT22;2619;47.868;11.892;2022-11-13T04:09:18;2.90;99.90
5200;DHT22;2619;47.868;11.892;2022-11-13T04:11:44;3.00;99.90
5200;DHT22;2619;47.868;11.892;2022-11-13T04:14:10;3.10;99.90
5200;DHT22;2619;47.868;11.892;2022-11-13T04:16:35;3.00;99.90
5200;DHT22;2619;47.868;11.892;2022-11-13T04:19:01;3.00;99.90
5200;DHT22;2619;47.868;11.892;2022-11-13T04:21:26;3.00;99.90
5200;DHT22;2619;47.868;11.892;2022-11-13T04:23:53;3.00;99.90
5200;DHT22;2619;47.868;11.892;2022-11-13T04:26:18;3.10;99.90
5200;DHT22;2619;47.868;11.892;2022-11-13T04:28:44;3.10;99.90
5200;DHT22;2619;47.868;11.892;2022-11-13T04:31:10;3.10;99.90
5200;DHT22;2619;47.868;11.892;2022-11-13T04:33:35;3.20;99.90
5200;DHT22;2619;47.868;11.892;2022-11-13T04:36:01;3.20;99.90
5200;DHT22;2619;47.868;11.892;2022-11-13T04:38:27;3.20;99.90
5200;DHT22;2619;47.868;11.892;2022-11-13T04:40:52;3.20;99.90
5200;DHT22;2619;47.868;11.892;2022-11-13T04:43:38;3.10;99.90
5200;DHT22;2619;47.868;11.892;2022-11-13T04:46:03;3.10;99.90
5200;DHT22;2619;47.868;11.892;2022-11-13T04:48:29;3.10;99.90
5200;DHT22;2619;47.868;11.892;2022-11-13T04:50:55;3.00;99.90
5200;DHT22;2619;47.868;11.892;2022-11-13T04:53:20;3.10;99.90
5200;DHT22;2619;47.868;11.892;2022-11-13T04:55:46;3.10;99.90
5200;DHT22;2619;47.868;11.892;2022-11-13T04:58:11;3.10;99.90
5200;DHT22;2619;47.868;11.892;2022-11-13T05:00:37;3.20;99.90
5200;DHT22;2619;47.868;11.892;2022-11-13T05:03:02;3.20;99.90
5200;DHT22;2619;47.868;11.892;2022-11-13T05:05:28;3.20;99.90
5200;DHT22;2619;47.868;11.892;2022-11-13T05:07:54;3.20;99.90
5200;DHT22;2619;47.868;11.892;2022-11-13T05:10:20;3.20;99.90
5200;DHT22;2619;47.868;11.892;2022-11-13T05:12:46;3.20;99.90
5200;DHT22;2619;47.868;11.892;2022-11-13T05:15:11;3.20;99.90
5200;DHT22;2619;47.868;11.892;2022-11-13T05:17:37;3.20;99.90
5200;DHT22;2619;47.868;11.892;2022-11-13T05:20:03;3.20;99.90
5200;DHT22;2619;47.868;11.892;2022-11-13T05:22:29;3.20;99.90
5200;DHT22;2619;47.868;11.892;2022-11-13T05:24:54;3.30;99.90
5200;DHT22;2619;47.868;11.892;2022-11-13T05:27:20;3.30;99.90
5200;DHT22;2619;47.868;11.892;2022-11-13T05:29:45;3.30;99.90
5200;DHT22;2619;47.868;11.892;2022-11-13T05:32:11;3.30;99.90
5200;DHT22;2619;47.868;11.892;2022-11-13T05:34:37;3.40;99.90
5200;DHT22;2619;47.868;11.892;2022-11-13T05:37:04;3.40;99.90
5200;DHT22;2619;47.868;11.892;2022-11-13T05:39:30;3.40;99.90
5200;DHT22;2619;47.868;11.892;2022-11-13T05:41:55;3.40;99.90
5200;DHT22;2619;47.868;11.892;2022-11-13T05:44:21;3.30;99.90
5200;DHT22;2619;47.868;11.892;2022-11-13T05:46:47;3.30;99.90
5200;DHT22;2619;47.868;11.892;2022-11-13T05:49:12;3.20;99.90
5200;DHT22;2619;47.868;11.892;2022-11-13T05:51:38;3.20;99.90
5200;DHT22;2619;47.868;11.892;2022-11-13T05:54:04;3.10;99.90
5200;DHT22;2619;47.868;11.892;2022-11-13T05:56:33;3.30;99.90
5200;DHT22;2619;47.868;11.892;2022-11-13T05:58:59;3.30;99.90
5200;DHT22;2619;47.868;11.892;2022-11-13T06:01:36;3.30;99.90
5200;DHT22;2619;47.868;11.892;2022-11-13T06:04:03;3.30;99.90
5200;DHT22;2619;47.868;11.892;2022-11-13T06:06:30;3.30;99.90
5200;DHT22;2619;47.868;11.892;2022-11-13T06:08:57;3.30;99.90
5200;DHT22;2619;47.868;11.892;2022-11-13T06:11:26;3.20;99.90
5200;DHT22;2619;47.868;11.892;2022-11-13T06:13:53;3.20;99.90
5200;DHT22;2619;47.868;11.892;2022-11-13T06:16:22;3.30;99.90
5200;DHT22;2619;47.868;11.892;2022-11-13T06:18:48;3.30;99.90
5200;DHT22;2619;47.868;11.892;2022-11-13T06:21:17;3.30;99.90
5200;DHT22;2619;47.868;11.892;2022-11-13T06:23:43;3.30;99.90
5200;DHT22;2619;47.868;11.892;2022-11-13T06:26:29;3.40;99.90
5200;DHT22;2619;47.868;11.892;2022-11-13T06:28:56;3.40;99.90
5200;DHT22;2619;47.868;11.892;2022-11-13T06:31:23;3.40;99.90
5200;DHT22;2619;47.868;11.892;2022-11-13T06:33:50;3.50;99.90
5200;DHT22;2619;47.868;11.892;2022-11-13T06:36:20;3.50;99.90
5200;DHT22;2619;47.868;11.892;2022-11-13T06:38:46;3.50;99.90
5200;DHT22;2619;47.868;11.892;2022-11-13T06:41:14;3.50;99.90
5200;DHT22;2619;47.868;11.892;2022-11-13T06:43:41;3.60;99.90
5200;DHT22;2619;47.868;11.892;2022-11-13T06:46:19;3.50;99.90
5200;DHT22;2619;47.868;11.892;2022-11-13T06:48:45;3.50;99.90
5200;DHT22;2619;47.868;11.892;2022-11-13T06:51:17;3.50;99.90
5200;DHT22;2619;47.868;11.892;2022-11-13T06:53:43;3.50;99.90
5200;DHT22;2619;47.868;11.892;2022-11-13T06:56:09;3.50;99.90
5200;DHT22;2619;47.868;11.892;2022-11-13T06:58:35;3.60;99.90
5200;DHT22;2619;47.868;11.892;2022-11-13T07:01:09;3.70;99.90
5200;DHT22;2619;47.868;11.892;2022-11-13T07:03:35;3.80;99.90
5200;DHT22;2619;47.868;11.892;2022-11-13T07:06:03;3.80;99.90
5200;DHT22;2619;47.868;11.892;2022-11-13T07:08:29;3.80;99.90
5200;DHT22;2619;47.868;11.892;2022-11-13T07:10:55;3.80;99.90
5200;DHT22;2619;47.868;11.892;2022-11-13T07:13:22;3.60;99.90
5200;DHT22;2619;47.868;11.892;2022-11-13T07:15:48;3.50;99.90
5200;DHT22;2619;47.868;11.892;2022-11-13T07:18:14;3.40;99.90
5200;DHT22;2619;47.868;11.892;2022-11-13T07:20:40;3.40;99.90
5200;DHT22;2619;47.868;11.892;2022-11-13T07:23:05;3.40;99.90
5200;DHT22;2619;47.868;11.892;2022-11-13T07:25:31;3.50;99.90
5200;DHT22;2619;47.868;11.892;2022-11-13T07:27:57;3.50;99.90
5200;DHT22;2619;47.868;11.892;2022-11-13T07:30:22;3.50;99.90
5200;DHT22;2619;47.868;11.892;2022-11-13T07:32:48;3.40;99.90
5200;DHT22;2619;47.868;11.892;2022-11-13T07:35:14;3.40;99.90
5200;DHT22;2619;47.868;11.892;2022-11-13T07:37:42;3.40;99.90
5200;DHT22;2619;47.868;11.892;2022-11-13T07:40:08;3.40;99.90
5200;DHT22;2619;47.868;11.892;2022-11-13T07:42:34;3.50;99.90
5200;DHT22;2619;47.868;11.892;2022-11-13T07:45:00;3.50;99.90
5200;DHT22;2619;47.868;11.892;2022-11-13T07:47:26;3.50;99.90
5200;DHT22;2619;47.868;11.892;2022-11-13T07:49:51;3.50;99.90
5200;DHT22;2619;47.868;11.892;2022-11-13T07:52:17;3.60;99.90
5200;DHT22;2619;47.868;11.892;2022-11-13T07:54:43;3.60;99.90
5200;DHT22;2619;47.868;11.892;2022-11-13T07:57:08;3.70;99.90
5200;DHT22;2619;47.868;11.892;2022-11-13T07:59:34;3.70;99.90
5200;DHT22;2619;47.868;11.892;2022-11-13T08:02:00;3.70;99.90
5200;DHT22;2619;47.868;11.892;2022-11-13T08:04:26;3.70;99.90
5200;DHT22;2619;47.868;11.892;2022-11-13T08:06:52;3.80;99.90
5200;DHT22;2619;47.868;11.892;2022-11-13T08:09:18;3.80;99.90
5200;DHT22;2619;47.868;11.892;2022-11-13T08:11:43;3.90;99.90
5200;DHT22;2619;47.868;11.892;2022-11-13T08:14:10;3.90;99.90
5200;DHT22;2619;47.868;11.892;2022-11-13T08:16:35;4.10;99.90
5200;DHT22;2619;47.868;11.892;2022-11-13T08:19:02;4.10;99.90
5200;DHT22;2619;47.868;11.892;2022-11-13T08:21:27;4.10;99.90
5200;DHT22;2619;47.868;11.892;2022-11-13T08:23:53;4.10;99.90
5200;DHT22;2619;47.868;11.892;2022-11-13T08:26:19;4.20;99.90
5200;DHT22;2619;47.868;11.892;2022-11-13T08:28:45;4.10;99.90
5200;DHT22;2619;47.868;11.892;2022-11-13T08:31:11;4.10;99.90
5200;DHT22;2619;47.868;11.892;2022-11-13T08:33:38;4.20;99.90
5200;DHT22;2619;47.868;11.892;2022-11-13T08:36:04;4.30;99.90
5200;DHT22;2619;47.868;11.892;2022-11-13T08:38:30;4.40;99.90
5200;DHT22;2619;47.868;11.892;2022-11-13T08:40:57;4.50;99.90
5200;DHT22;2619;47.868;11.892;2022-11-13T08:43:23;4.50;99.90
5200;DHT22;2619;47.868;11.892;2022-11-13T08:45:48;4.50;99.90
5200;DHT22;2619;47.868;11.892;2022-11-13T08:48:14;4.50;99.90
5200;DHT22;2619;47.868;11.892;2022-11-13T08:50:40;4.40;99.90
5200;DHT22;2619;47.868;11.892;2022-11-13T08:53:06;4.40;99.90
5200;DHT22;2619;47.868;11.892;2022-11-13T08:55:32;4.50;99.90
5200;DHT22;2619;47.868;11.892;2022-11-13T08:57:59;4.40;99.90
5200;DHT22;2619;47.868;11.892;2022-11-13T09:00:29;4.40;99.90
5200;DHT22;2619;47.868;11.892;2022-11-13T09:02:57;4.40;99.90
5200;DHT22;2619;47.868;11.892;2022-11-13T09:05:23;4.50;99.90
5200;DHT22;2619;47.868;11.892;2022-11-13T09:07:49;4.60;99.90
5200;DHT22;2619;47.868;11.892;2022-11-13T09:10:16;4.60;99.90
5200;DHT22;2619;47.868;11.892;2022-11-13T09:12:42;4.50;99.90
5200;DHT22;2619;47.868;11.892;2022-11-13T09:15:09;4.60;99.90
5200;DHT22;2619;47.868;11.892;2022-11-13T09:17:35;4.70;99.90
5200;DHT22;2619;47.868;11.892;2022-11-13T09:20:00;4.70;99.90
5200;DHT22;2619;47.868;11.892;2022-11-13T09:22:26;4.70;99.90
5200;DHT22;2619;47.868;11.892;2022-11-13T09:24:52;4.80;99.90
5200;DHT22;2619;47.868;11.892;2022-11-13T09:27:17;4.70;99.90
5200;DHT22;2619;47.868;11.892;2022-11-13T09:29:43;4.90;99.90
5200;DHT22;2619;47.868;11.892;2022-11-13T09:32:09;5.00;99.90
5200;DHT22;2619;47.868;11.892;2022-11-13T09:34:35;5.20;99.90
5200;DHT22;2619;47.868;11.892;2022-11-13T09:37:00;5.30;99.90
5200;DHT22;2619;47.868;11.892;2022-11-13T09:39:26;5.50;99.90
5200;DHT22;2619;47.868;11.892;2022-11-13T09:41:58;5.60;99.90
5200;DHT22;2619;47.868;11.892;2022-11-13T09:47:08;5.70;99.90
5200;DHT22;2619;47.868;11.892;2022-11-13T09:49:40;5.90;99.90
5200;DHT22;2619;47.868;11.892;2022-11-13T09:52:15;5.80;99.90
5200;DHT22;2619;47.868;11.892;2022-11-13T09:54:41;6.10;99.90
5200;DHT22;2619;47.868;11.892;2022-11-13T09:57:45;6.40;99.90
5200;DHT22;2619;47.868;11.892;2022-11-13T10:00:18;6.70;99.90
5200;DHT22;2619;47.868;11.892;2022-11-13T10:08:24;7.60;99.90
5200;DHT22;2619;47.868;11.892;2022-11-13T10:11:18;7.80;99.90
5200;DHT22;2619;47.868;11.892;2022-11-13T10:14:13;7.90;99.90
5200;DHT22;2619;47.868;11.892;2022-11-13T10:16:44;7.70;99.90
5200;DHT22;2619;47.868;11.892;2022-11-13T10:21:46;7.60;99.90
5200;DHT22;2619;47.868;11.892;2022-11-13T10:24:21;7.50;99.90
5200;DHT22;2619;47.868;11.892;2022-11-13T10:26:49;7.20;99.90
5200;DHT22;2619;47.868;11.892;2022-11-13T10:29:18;7.10;99.90
5200;DHT22;2619;47.868;11.892;2022-11-13T10:31:47;7.10;99.90
5200;DHT22;2619;47.868;11.892;2022-11-13T10:34:14;7.20;99.90
5200;DHT22;2619;47.868;11.892;2022-11-13T10:37:11;7.30;99.90
5200;DHT22;2619;47.868;11.892;2022-11-13T10:39:44;7.40;99.90
5200;DHT22;2619;47.868;11.892;2022-11-13T10:42:34;7.60;99.90
5200;DHT22;2619;47.868;11.892;2022-11-13T10:45:02;7.70;99.90
5200;DHT22;2619;47.868;11.892;2022-11-13T10:47:31;7.80;99.90
5200;DHT22;2619;47.868;11.892;2022-11-13T10:50:13;7.90;99.90
5200;DHT22;2619;47.868;11.892;2022-11-13T10:52:46;7.90;99.90
5200;DHT22;2619;47.868;11.892;2022-11-13T10:57:57;7.60;99.90
5200;DHT22;2619;47.868;11.892;2022-11-13T11:00:29;7.60;99.90
5200;DHT22;2619;47.868;11.892;2022-11-13T11:02:54;7.60;99.90
5200;DHT22;2619;47.868;11.892;2022-11-13T11:05:22;7.50;99.90
5200;DHT22;2619;47.868;11.892;2022-11-13T11:07:49;7.50;99.90
5200;DHT22;2619;47.868;11.892;2022-11-13T11:10:27;7.50;99.90
5200;DHT22;2619;47.868;11.892;2022-11-13T11:13:20;7.60;99.90
5200;DHT22;2619;47.868;11.892;2022-11-13T11:15:51;7.50;99.90
5200;DHT22;2619;47.868;11.892;2022-11-13T11:18:22;7.40;99.90
5200;DHT22;2619;47.868;11.892;2022-11-13T11:20:51;7.30;99.90
5200;DHT22;2619;47.868;11.892;2022-11-13T11:25:50;7.10;99.90
5200;DHT22;2619;47.868;11.892;2022-11-13T11:34:30;7.20;99.90
5200;DHT22;2619;47.868;11.892;2022-11-13T11:37:30;7.20;99.90
5200;DHT22;2619;47.868;11.892;2022-11-13T11:42:37;6.90;99.90
5200;DHT22;2619;47.868;11.892;2022-11-13T11:45:23;6.90;99.90
5200;DHT22;2619;47.868;11.892;2022-11-13T11:47:49;6.80;99.90
5200;DHT22;2619;47.868;11.892;2022-11-13T11:50:22;6.60;99.90
5200;DHT22;2619;47.868;11.892;2022-11-13T11:53:15;6.40;99.90
5200;DHT22;2619;47.868;11.892;2022-11-13T11:56:07;6.50;99.90
5200;DHT22;2619;47.868;11.892;2022-11-13T12:07:21;6.40;99.90
5200;DHT22;2619;47.868;11.892;2022-11-13T12:10:06;6.40;99.90
5200;DHT22;2619;47.868;11.892;2022-11-13T12:16:04;6.80;99.90
5200;DHT22;2619;47.868;11.892;2022-11-13T12:18:43;6.90;99.90
5200;DHT22;2619;47.868;11.892;2022-11-13T12:21:46;7.20;99.90
5200;DHT22;2619;47.868;11.892;2022-11-13T12:34:58;7.70;99.90
5200;DHT22;2619;47.868;11.892;2022-11-13T12:37:37;7.60;99.90
5200;DHT22;2619;47.868;11.892;2022-11-13T12:45:53;7.70;99.90
5200;DHT22;2619;47.868;11.892;2022-11-13T12:48:25;7.80;99.90
5200;DHT22;2619;47.868;11.892;2022-11-13T12:51:05;7.90;99.90
5200;DHT22;2619;47.868;11.892;2022-11-13T12:56:31;8.00;99.90
5200;DHT22;2619;47.868;11.892;2022-11-13T13:01:31;8.10;99.90
5200;DHT22;2619;47.868;11.892;2022-11-13T13:04:36;8.10;99.90
5200;DHT22;2619;47.868;11.892;2022-11-13T13:15:31;7.30;99.90
5200;DHT22;2619;47.868;11.892;2022-11-13T13:20:45;6.60;99.90
5200;DHT22;2619;47.868;11.892;2022-11-13T13:23:12;6.30;99.90
5200;DHT22;2619;47.868;11.892;2022-11-13T13:25:39;6.30;99.90
5200;DHT22;2619;47.868;11.892;2022-11-13T13:42:17;5.80;99.90
5200;DHT22;2619;47.868;11.892;2022-11-13T13:45:14;5.70;99.90
5200;DHT22;2619;47.868;11.892;2022-11-13T13:47:46;5.60;99.90
5200;DHT22;2619;47.868;11.892;2022-11-13T13:50:19;5.60;99.90
5200;DHT22;2619;47.868;11.892;2022-11-13T13:52:45;5.50;99.90
5200;DHT22;2619;47.868;11.892;2022-11-13T13:55:33;5.50;99.90
5200;DHT22;2619;47.868;11.892;2022-11-13T13:58:02;5.40;99.90
5200;DHT22;2619;47.868;11.892;2022-11-13T14:00:28;5.50;99.90
5200;DHT22;2619;47.868;11.892;2022-11-13T14:02:54;5.40;99.90
5200;DHT22;2619;47.868;11.892;2022-11-13T14:05:26;5.30;99.90
5200;DHT22;2619;47.868;11.892;2022-11-13T14:07:52;5.20;99.90
5200;DHT22;2619;47.868;11.892;2022-11-13T14:10:20;5.20;99.90
5200;DHT22;2619;47.868;11.892;2022-11-13T14:12:47;5.10;99.90
5200;DHT22;2619;47.868;11.892;2022-11-13T14:15:30;5.10;99.90
5200;DHT22;2619;47.868;11.892;2022-11-13T14:18:11;5.00;99.90
5200;DHT22;2619;47.868;11.892;2022-11-13T14:20:47;4.90;99.90
5200;DHT22;2619;47.868;11.892;2022-11-13T14:25:49;4.70;99.90
5200;DHT22;2619;47.868;11.892;2022-11-13T14:28:20;4.60;99.90
5200;DHT22;2619;47.868;11.892;2022-11-13T14:33:31;4.60;99.90
5200;DHT22;2619;47.868;11.892;2022-11-13T14:35:58;4.50;99.90
5200;DHT22;2619;47.868;11.892;2022-11-13T14:38:32;4.50;99.90
5200;DHT22;2619;47.868;11.892;2022-11-13T14:40:59;4.50;99.90
5200;DHT22;2619;47.868;11.892;2022-11-13T14:43:29;4.40;99.90
5200;DHT22;2619;47.868;11.892;2022-11-13T14:45:59;4.40;99.90
5200;DHT22;2619;47.868;11.892;2022-11-13T14:48:34;4.40;99.90
5200;DHT22;2619;47.868;11.892;2022-11-13T14:51:02;4.20;99.90
5200;DHT22;2619;47.868;11.892;2022-11-13T14:56:07;4.10;99.90
5200;DHT22;2619;47.868;11.892;2022-11-13T14:58:54;4.10;99.90
5200;DHT22;2619;47.868;11.892;2022-11-13T15:01:23;4.10;99.90
5200;DHT22;2619;47.868;11.892;2022-11-13T15:03:50;4.00;99.90
5200;DHT22;2619;47.868;11.892;2022-11-13T15:06:16;3.90;99.90
5200;DHT22;2619;47.868;11.892;2022-11-13T15:08:44;3.90;99.90
5200;DHT22;2619;47.868;11.892;2022-11-13T15:11:18;3.80;99.90
5200;DHT22;2619;47.868;11.892;2022-11-13T15:13:45;3.70;99.90
5200;DHT22;2619;47.868;11.892;2022-11-13T15:16:17;3.70;99.90
5200;DHT22;2619;47.868;11.892;2022-11-13T15:18:46;3.60;99.90
5200;DHT22;2619;47.868;11.892;2022-11-13T15:21:12;3.70;99.90
5200;DHT22;2619;47.868;11.892;2022-11-13T15:23:38;3.70;99.90
5200;DHT22;2619;47.868;11.892;2022-11-13T15:26:04;3.60;99.90
5200;DHT22;2619;47.868;11.892;2022-11-13T15:28:29;3.50;99.90
5200;DHT22;2619;47.868;11.892;2022-11-13T15:30:55;3.40;99.90
5200;DHT22;2619;47.868;11.892;2022-11-13T15:33:21;3.40;99.90
5200;DHT22;2619;47.868;11.892;2022-11-13T15:35:46;3.40;99.90
5200;DHT22;2619;47.868;11.892;2022-11-13T15:38:12;3.30;99.90
5200;DHT22;2619;47.868;11.892;2022-11-13T15:40:38;3.20;99.90
5200;DHT22;2619;47.868;11.892;2022-11-13T15:43:05;3.10;99.90
5200;DHT22;2619;47.868;11.892;2022-11-13T15:45:36;3.00;99.90
5200;DHT22;2619;47.868;11.892;2022-11-13T15:48:01;3.00;99.90
5200;DHT22;2619;47.868;11.892;2022-11-13T15:50:27;3.00;99.90
5200;DHT22;2619;47.868;11.892;2022-11-13T15:52:53;2.90;99.90
5200;DHT22;2619;47.868;11.892;2022-11-13T15:55:29;2.90;99.90
5200;DHT22;2619;47.868;11.892;2022-11-13T15:57:56;2.80;99.90
5200;DHT22;2619;47.868;11.892;2022-11-13T16:00:25;2.70;99.90
5200;DHT22;2619;47.868;11.892;2022-11-13T16:02:55;2.70;99.90
5200;DHT22;2619;47.868;11.892;2022-11-13T16:05:25;2.60;99.90
5200;DHT22;2619;47.868;11.892;2022-11-13T16:07:53;2.50;99.90
5200;DHT22;2619;47.868;11.892;2022-11-13T16:10:23;2.50;99.90
5200;DHT22;2619;47.868;11.892;2022-11-13T16:12:52;2.50;99.90
5200;DHT22;2619;47.868;11.892;2022-11-13T16:15:18;2.70;99.90
5200;DHT22;2619;47.868;11.892;2022-11-13T16:17:48;2.60;99.90
5200;DHT22;2619;47.868;11.892;2022-11-13T16:20:15;2.40;99.90
5200;DHT22;2619;47.868;11.892;2022-11-13T16:22:42;2.30;99.90
5200;DHT22;2619;47.868;11.892;2022-11-13T16:25:16;2.50;99.90
5200;DHT22;2619;47.868;11.892;2022-11-13T16:27:43;2.50;99.90
5200;DHT22;2619;47.868;11.892;2022-11-13T16:30:20;2.30;99.90
5200;DHT22;2619;47.868;11.892;2022-11-13T16:32:53;2.20;99.90
5200;DHT22;2619;47.868;11.892;2022-11-13T16:35:19;2.20;99.90
5200;DHT22;2619;47.868;11.892;2022-11-13T16:37:45;2.30;99.90
5200;DHT22;2619;47.868;11.892;2022-11-13T16:40:23;2.40;99.90
5200;DHT22;2619;47.868;11.892;2022-11-13T16:42:49;2.50;99.90
5200;DHT22;2619;47.868;11.892;2022-11-13T16:45:15;2.40;99.90
5200;DHT22;2619;47.868;11.892;2022-11-13T16:47:42;2.20;99.90
5200;DHT22;2619;47.868;11.892;2022-11-13T16:50:17;2.30;99.90
5200;DHT22;2619;47.868;11.892;2022-11-13T16:52:43;2.40;99.90
5200;DHT22;2619;47.868;11.892;2022-11-13T16:55:09;2.20;99.90
5200;DHT22;2619;47.868;11.892;2022-11-13T16:57:35;2.10;99.90
5200;DHT22;2619;47.868;11.892;2022-11-13T17:00:00;2.20;99.90
5200;DHT22;2619;47.868;11.892;2022-11-13T17:02:26;2.10;99.90
5200;DHT22;2619;47.868;11.892;2022-11-13T17:04:54;2.10;99.90
5200;DHT22;2619;47.868;11.892;2022-11-13T17:07:20;2.30;99.90
5200;DHT22;2619;47.868;11.892;2022-11-13T17:09:46;2.30;99.90
5200;DHT22;2619;47.868;11.892;2022-11-13T17:12:11;2.20;99.90
5200;DHT22;2619;47.868;11.892;2022-11-13T17:14:37;2.00;99.90
5200;DHT22;2619;47.868;11.892;2022-11-13T17:17:05;2.00;99.90
5200;DHT22;2619;47.868;11.892;2022-11-13T17:19:31;2.00;99.90
5200;DHT22;2619;47.868;11.892;2022-11-13T17:21:57;1.90;99.90
5200;DHT22;2619;47.868;11.892;2022-11-13T17:24:23;1.80;99.90
5200;DHT22;2619;47.868;11.892;2022-11-13T17:26:48;1.80;99.90
5200;DHT22;2619;47.868;11.892;2022-11-13T17:29:14;1.70;99.90
5200;DHT22;2619;47.868;11.892;2022-11-13T17:31:40;1.80;99.90
5200;DHT22;2619;47.868;11.892;2022-11-13T17:34:05;1.70;99.90
5200;DHT22;2619;47.868;11.892;2022-11-13T17:36:31;1.70;99.90
5200;DHT22;2619;47.868;11.892;2022-11-13T17:38:57;1.50;99.90
5200;DHT22;2619;47.868;11.892;2022-11-13T17:41:22;1.50;99.90
5200;DHT22;2619;47.868;11.892;2022-11-13T17:43:48;1.50;99.90
5200;DHT22;2619;47.868;11.892;2022-11-13T17:46:16;1.50;99.90
5200;DHT22;2619;47.868;11.892;2022-11-13T17:48:42;1.50;99.90